Time;durP1;ratioP1;P1;durP2;ratioP2;P2;SDS_P1;SDS_P2;PMS_P1;PMS_P2;Temp;Humidity;BMP_temperature;BMP_pressure;BME280_temperature;BME280_humidity;BME280_pressure;Samples;Min_cycle;Max_cycle;Signal;HPM_P1;HPM_P2
2022/02/04 00:22:37;;;;;;;;;;;;;;;0.61;82.42;100213.72;5092112;28;1460;-58
2022/02/04 00:24:56;;;;;;;;;;;;;;;0.49;82.75;100210.88;5091870;28;1237;-58
2022/02/04 00:27:24;;;;;;;;;;;;;;;0.45;83.21;100213.47;5092195;28;831;-58
2022/02/04 00:30:03;;;;;;;;;;;;;;;0.48;83.14;100220.19;5092171;28;843;-58
2022/02/04 00:32:32;;;;;;;;;;;;;;;0.55;82.61;100226.69;5091950;28;875;-58
2022/02/04 00:35:07;;;;;;;;;;;;;;;0.59;82.74;100230.38;5091901;28;928;-59
2022/02/04 00:37:52;;;;;;;;;;;;;;;0.69;82.31;100233.88;5091950;28;889;-58
2022/02/04 00:40:20;;;;;;;;;;;;;;;0.84;82.24;100224.38;5092109;28;901;-58
2022/02/04 00:42:49;;;;;;;;;;;;;;;0.93;81.30;100225.94;5092045;28;839;-59
2022/02/04 00:45:22;;;;;;;;;;;;;;;0.93;81.62;100225.13;5091878;28;1893;-59
2022/02/04 00:47:56;;;;;;;;;;;;;;;0.94;81.91;100227.53;5091712;28;925;-59
2022/02/04 00:50:33;;;;;;;;;;;;;;;0.91;82.17;100225.47;5091793;28;842;-59
2022/02/04 00:53:10;;;;;;;;;;;;;;;0.95;82.16;100222.88;5091852;28;898;-59
2022/02/04 00:55:45;;;;;;;;;;;;;;;1.02;81.40;100228.59;5091685;28;827;-59
2022/02/04 01:28:44;;;;;;;;;;;;;;;1.15;81.53;100257.56;5009373;28;1194;-59
2022/02/04 01:31:14;;;;;;;;;;;;;;;1.16;81.59;100261.06;5009567;28;918;-59
2022/02/04 01:33:41;;;;;;;;;;;;;;;1.15;81.28;100263.00;5009656;28;1051;-59
2022/02/04 01:36:07;;;;;;;;;;;;;;;1.22;81.31;100257.03;5009430;28;816;-59
2022/02/04 01:38:34;;;;;;;;;;;;;;;1.27;81.12;100264.22;5009332;28;848;-59
2022/02/04 01:41:00;;;;;;;;;;;;;;;1.29;82.21;100257.31;5009525;28;893;-59
2022/02/04 01:43:26;;;;;;;;;;;;;;;1.25;81.91;100261.03;5009658;28;891;-59
2022/02/04 01:45:54;;;;;;;;;;;;;;;1.21;82.13;100260.88;5009162;28;1956;-59
2022/02/04 01:48:21;;;;;;;;;;;;;;;1.16;82.31;100264.59;5009259;28;883;-59
2022/02/04 01:50:48;;;;;;;;;;;;;;;1.13;82.64;100262.53;5009438;28;871;-59
2022/02/04 01:53:17;;;;;;;;;;;;;;;1.12;82.48;100273.75;5009218;28;1006;-59
2022/02/04 01:55:44;;;;;;;;;;;;;;;1.09;83.41;100279.81;5009306;28;928;-59
2022/02/04 01:58:11;;;;;;;;;;;;;;;1.02;83.18;100270.25;5009292;28;847;-59
2022/02/04 02:00:39;;;;;;;;;;;;;;;1.02;83.77;100274.88;5090349;28;1019;-59
2022/02/04 02:03:06;;;;;;;;;;;;;;;1.02;83.57;100277.59;5091127;28;887;-59
2022/02/04 02:05:33;;;;;;;;;;;;;;;1.03;83.30;100273.78;5091013;28;1886;-59
2022/02/04 02:08:09;;;;;;;;;;;;;;;1.09;83.17;100268.94;5090823;28;858;-59
2022/02/04 02:10:34;;;;;;;;;;;;;;;1.07;82.47;100276.63;5093905;28;862;-59
2022/02/04 02:13:14;;;;;;;;;;;;;;;1.10;82.88;100273.25;5095002;28;1040;-59
2022/02/04 02:39:05;;;;;;;;;;;;;;;0.19;83.17;100262.44;5012231;28;1259;-59
2022/02/04 02:59:22;;;;;;;;;;;;;;;-0.54;81.28;100262.25;5094153;28;688;-59
2022/02/04 03:01:51;;;;;;;;;;;;;;;-0.64;81.04;100268.75;5093804;28;851;-59
2022/02/04 03:04:17;;;;;;;;;;;;;;;-0.73;81.50;100265.25;5093916;28;920;-59
2022/02/04 03:06:45;;;;;;;;;;;;;;;-0.80;79.25;100264.91;5093445;28;1881;-59
2022/02/04 03:09:12;;;;;;;;;;;;;;;-0.81;78.13;100269.53;5093751;28;894;-59
2022/02/04 03:11:38;;;;;;;;;;;;;;;-0.89;79.03;100276.53;5093660;28;906;-59
2022/02/04 03:14:05;;;;;;;;;;;;;;;-0.96;79.60;100281.63;5093589;28;901;-59
2022/02/04 03:16:32;;;;;;;;;;;;;;;-1.01;80.44;100291.81;5093715;28;929;-59
2022/02/04 03:19:01;;;;;;;;;;;;;;;-1.07;80.48;100301.97;5093423;28;898;-59
2022/02/04 03:21:50;;;;;;;;;;;;;;;-1.14;81.10;100294.28;5091966;28;1187;-59
2022/02/04 03:24:19;;;;;;;;;;;;;;;-1.24;81.53;100295.38;5092494;28;1400;-59
2022/02/04 03:26:52;;;;;;;;;;;;;;;-1.17;81.73;100297.66;5093263;28;1906;-59
2022/02/04 03:29:34;;;;;;;;;;;;;;;-1.15;81.53;100295.41;5093479;28;815;-59
2022/02/04 03:32:03;;;;;;;;;;;;;;;-1.29;82.31;100298.22;5093384;28;835;-59
2022/02/04 03:34:29;;;;;;;;;;;;;;;-1.27;82.71;100304.13;5093441;28;823;-59
2022/02/04 03:36:56;;;;;;;;;;;;;;;-1.27;82.95;100308.75;5092986;28;804;-59
2022/02/04 03:39:22;;;;;;;;;;;;;;;-1.23;82.28;100312.44;5092996;28;953;-59
2022/02/04 03:41:49;;;;;;;;;;;;;;;-1.11;80.51;100306.44;5093201;28;890;-59
2022/02/04 03:44:15;;;;;;;;;;;;;;;-1.04;80.25;100320.38;5092979;28;870;-58
2022/02/04 03:46:42;;;;;;;;;;;;;;;-1.20;80.80;100322.66;5093188;28;1913;-59
2022/02/04 03:49:08;;;;;;;;;;;;;;;-1.36;82.01;100330.41;5092934;28;795;-59
2022/02/04 03:51:35;;;;;;;;;;;;;;;-1.33;80.74;100323.56;5092957;28;818;-59
2022/02/04 03:54:02;;;;;;;;;;;;;;;-1.15;78.67;100325.25;5092869;28;778;-59
2022/02/04 03:56:27;;;;;;;;;;;;;;;-1.06;77.47;100326.09;5092832;28;901;-59
2022/02/04 03:58:54;;;;;;;;;;;;;;;-1.02;76.99;100331.72;5092766;28;837;-59
2022/02/04 04:01:21;;;;;;;;;;;;;;;-1.08;76.50;100327.53;5092584;28;819;-59
2022/02/04 04:03:48;;;;;;;;;;;;;;;-1.19;77.07;100328.91;5092521;28;803;-59
2022/02/04 04:06:15;;;;;;;;;;;;;;;-1.34;78.50;100332.81;5092610;28;1939;-59
2022/02/04 04:08:42;;;;;;;;;;;;;;;-1.30;77.86;100331.88;5092600;28;897;-59
2022/02/04 04:11:08;;;;;;;;;;;;;;;-1.15;76.91;100330.69;5092452;28;799;-59
2022/02/04 04:13:34;;;;;;;;;;;;;;;-1.13;76.83;100333.06;5092166;28;885;-59
2022/02/04 04:16:00;;;;;;;;;;;;;;;-1.12;76.16;100342.81;5092215;28;1019;-59
2022/02/04 04:18:27;;;;;;;;;;;;;;;-1.12;75.11;100343.63;5092433;28;894;-59
2022/02/04 04:20:53;;;;;;;;;;;;;;;-1.06;74.89;100342.38;5091904;28;1189;-59
2022/02/04 04:23:20;;;;;;;;;;;;;;;-0.93;74.31;100339.91;5092315;28;878;-59
2022/02/04 04:25:46;;;;;;;;;;;;;;;-1.15;73.94;100341.53;5092133;28;1914;-59
2022/02/04 04:28:13;;;;;;;;;;;;;;;-1.39;75.07;100341.06;5092240;28;807;-59
2022/02/04 04:30:39;;;;;;;;;;;;;;;-1.68;76.37;100336.88;5092581;28;881;-59
2022/02/04 04:33:05;;;;;;;;;;;;;;;-1.79;76.84;100338.19;5091835;28;898;-59
2022/02/04 04:35:32;;;;;;;;;;;;;;;-1.80;77.08;100334.69;5092148;28;881;-59
2022/02/04 04:41:04;;;;;;;;;;;;;;;-1.95;78.51;100340.47;5092112;28;641;-58
2022/02/04 05:30:05;;;;;;;;;;;;;;;-3.18;81.58;100359.94;4990117;28;921;-58
2022/02/04 05:32:31;;;;;;;;;;;;;;;-3.33;82.73;100368.28;4990159;28;1107;-58
2022/02/04 05:35:00;;;;;;;;;;;;;;;-3.35;83.28;100370.47;4990166;28;888;-58
2022/02/04 05:37:27;;;;;;;;;;;;;;;-3.19;81.92;100373.75;5069495;28;962;-60
2022/02/04 05:39:57;;;;;;;;;;;;;;;-3.09;81.25;100376.28;5071280;28;831;-58
2022/02/04 05:42:28;;;;;;;;;;;;;;;-3.01;80.76;100375.56;5071439;28;910;-58
2022/02/04 05:45:03;;;;;;;;;;;;;;;-2.90;81.12;100377.03;5072919;28;838;-58
2022/02/04 05:47:30;;;;;;;;;;;;;;;-2.76;81.44;100379.72;5075002;28;1882;-58
2022/02/04 05:52:48;;;;;;;;;;;;;;;-2.18;78.14;100378.31;5074913;28;755;-58
2022/02/04 06:08:57;;;;;;;;;;;;;;;0.13;68.00;100391.53;5074594;28;692;-58
2022/02/04 06:24:34;;;;;;;;;;;;;;;1.27;72.73;100409.34;5074175;28;1344;-57
2022/02/04 06:27:00;;;;;;;;;;;;;;;1.57;68.80;100412.13;5074103;28;1910;-57
2022/02/04 06:29:26;;;;;;;;;;;;;;;1.75;71.11;100410.94;5074365;28;811;-57
2022/02/04 06:31:53;;;;;;;;;;;;;;;1.78;71.00;100414.94;5074183;28;799;-57
2022/02/04 06:34:19;;;;;;;;;;;;;;;1.86;72.23;100421.44;5073997;28;820;-57
2022/02/04 06:36:46;;;;;;;;;;;;;;;2.03;71.69;100421.38;5074124;28;815;-57
2022/02/04 06:39:13;;;;;;;;;;;;;;;2.27;73.39;100418.00;5074002;28;877;-57
2022/02/04 06:41:38;;;;;;;;;;;;;;;2.45;71.64;100414.03;5073915;28;819;-57
2022/02/04 06:44:06;;;;;;;;;;;;;;;2.42;70.88;100414.69;5073997;28;856;-57
2022/02/04 06:46:32;;;;;;;;;;;;;;;2.41;70.85;100415.00;5073846;28;1910;-57
2022/02/04 06:48:59;;;;;;;;;;;;;;;2.44;71.12;100411.63;5073914;28;843;-59
2022/02/04 06:51:25;;;;;;;;;;;;;;;2.51;69.50;100414.63;5073923;28;934;-59
2022/02/04 06:53:51;;;;;;;;;;;;;;;2.71;70.30;100407.56;5073756;28;906;-57
2022/02/04 06:56:17;;;;;;;;;;;;;;;2.94;68.90;100409.91;5073107;28;893;-59
2022/02/04 06:58:44;;;;;;;;;;;;;;;3.16;69.24;100411.47;5073709;28;807;-59
2022/02/04 07:01:10;;;;;;;;;;;;;;;3.47;69.23;100409.03;5073540;28;884;-59
2022/02/04 07:03:37;;;;;;;;;;;;;;;3.74;71.18;100409.50;5073469;28;792;-59
2022/02/04 07:06:05;;;;;;;;;;;;;;;4.23;70.93;100409.47;5073723;28;1886;-59
2022/02/04 07:11:18;;;;;;;;;;;;;;;4.82;69.67;100410.81;5073300;28;801;-59
2022/02/04 07:14:07;;;;;;;;;;;;;;;5.15;70.23;100414.41;5073389;28;981;-60
2022/02/04 07:16:40;;;;;;;;;;;;;;;5.15;70.42;100408.94;5073337;28;2126;-60
2022/02/04 07:21:51;;;;;;;;;;;;;;;4.97;66.29;100413.91;5088637;28;1281;-60
2022/02/04 07:24:18;;;;;;;;;;;;;;;4.90;67.98;100409.03;5109112;28;1275;-59
2022/02/04 07:26:44;;;;;;;;;;;;;;;5.64;71.02;100411.38;5093233;28;1999;-59
2022/02/04 07:29:10;;;;;;;;;;;;;;;5.76;68.10;100416.78;5093256;28;895;-59
2022/02/04 07:31:40;;;;;;;;;;;;;;;5.86;64.63;100418.94;5093212;28;827;-58
2022/02/04 07:35:13;;;;;;;;;;;;;;;5.83;64.51;100407.91;5092958;28;915;-59
2022/02/04 07:42:22;;;;;;;;;;;;;;;4.99;63.74;100400.66;5093912;28;621;-59
2022/02/04 07:44:49;;;;;;;;;;;;;;;4.89;65.40;100402.00;5093100;28;858;-59
2022/02/04 07:47:16;;;;;;;;;;;;;;;5.18;64.27;100397.25;5093034;28;1882;-59
2022/02/04 07:49:42;;;;;;;;;;;;;;;5.18;63.36;100394.53;5093138;28;921;-59
2022/02/04 07:52:09;;;;;;;;;;;;;;;5.03;63.08;100388.66;5092959;28;819;-59
2022/02/04 07:54:35;;;;;;;;;;;;;;;5.00;64.83;100389.38;5093138;28;886;-59
2022/02/04 07:57:02;;;;;;;;;;;;;;;5.34;63.27;100395.34;5092911;28;837;-60
2022/02/04 07:59:29;;;;;;;;;;;;;;;5.57;63.67;100389.25;5092732;28;803;-60
2022/02/04 08:01:54;;;;;;;;;;;;;;;5.71;62.94;100392.34;5092724;28;897;-57
2022/02/04 08:04:26;;;;;;;;;;;;;;;5.72;60.14;100389.25;5092582;28;891;-60
2022/02/04 08:06:57;;;;;;;;;;;;;;;5.58;61.80;100390.84;5092145;28;1953;-60
2022/02/04 08:14:31;;;;;;;;;;;;;;;5.91;64.40;100384.97;5092454;28;731;-59
2022/02/04 08:20:10;;;;;;;;;;;;;;;5.51;64.13;100386.78;5092321;28;754;-58
2022/02/04 08:22:47;;;;;;;;;;;;;;;5.18;64.85;100389.84;5091588;28;1587;-58
2022/02/04 08:28:15;;;;;;;;;;;;;;;4.84;69.63;100385.78;5092194;28;889;-58
2022/02/04 08:49:32;;;;;;;;;;;;;;;5.97;67.60;100382.78;5091755;28;633;-60
2022/02/04 08:55:07;;;;;;;;;;;;;;;6.20;66.87;100380.94;5091726;28;759;-59
2022/02/04 09:00:06;;;;;;;;;;;;;;;7.07;65.09;100373.28;5091747;28;779;-59
2022/02/04 09:02:36;;;;;;;;;;;;;;;7.14;60.37;100370.66;5091588;28;871;-60
2022/02/04 09:05:06;;;;;;;;;;;;;;;6.64;63.07;100366.97;5091717;28;933;-60
2022/02/04 09:07:35;;;;;;;;;;;;;;;6.61;62.76;100361.41;5091461;28;1956;-60
2022/02/04 09:10:11;;;;;;;;;;;;;;;6.56;60.96;100362.50;5091497;28;894;-60
2022/02/04 09:23:11;;;;;;;;;;;;;;;5.49;61.66;100355.38;5095880;28;845;-59
2022/02/04 09:25:39;;;;;;;;;;;;;;;5.41;61.10;100354.41;5095936;28;1914;-59
2022/02/04 09:28:06;;;;;;;;;;;;;;;5.31;64.20;100350.25;5095387;28;881;-59
2022/02/04 09:30:32;;;;;;;;;;;;;;;5.41;61.56;100350.88;5095908;28;822;-59
2022/02/04 09:32:59;;;;;;;;;;;;;;;5.70;62.71;100344.13;5095640;28;811;-59
2022/02/04 09:35:25;;;;;;;;;;;;;;;5.43;59.95;100332.91;5095717;28;893;-59
2022/02/04 09:37:53;;;;;;;;;;;;;;;5.20;58.78;100334.69;5095703;28;827;-59
2022/02/04 09:40:19;;;;;;;;;;;;;;;5.17;60.12;100327.19;5095584;28;878;-59
2022/02/04 09:42:46;;;;;;;;;;;;;;;5.21;61.57;100330.81;5095543;28;878;-58
2022/02/04 09:45:13;;;;;;;;;;;;;;;5.49;60.21;100333.44;5096082;28;901;-59
2022/02/04 09:47:42;;;;;;;;;;;;;;;5.75;58.09;100326.59;5096141;28;1957;-59
2022/02/04 09:50:15;;;;;;;;;;;;;;;6.16;60.87;100325.19;5095396;28;931;-59
2022/02/04 10:15:17;;;;;;;;;;;;;;;6.42;56.79;100304.53;5095085;28;1021;-60
2022/02/04 10:17:59;;;;;;;;;;;;;;;6.58;58.42;100304.47;5094318;28;899;-60
2022/02/04 10:20:26;;;;;;;;;;;;;;;7.26;57.91;100306.47;5094530;28;1287;-60
2022/02/04 10:22:52;;;;;;;;;;;;;;;7.61;54.97;100308.19;5094709;28;858;-59
2022/02/04 10:25:19;;;;;;;;;;;;;;;7.66;54.36;100313.38;5094490;28;866;-61
2022/02/04 10:27:46;;;;;;;;;;;;;;;7.95;57.40;100305.53;5094369;28;1971;-61
2022/02/04 10:30:14;;;;;;;;;;;;;;;8.01;55.29;100309.53;5093813;28;1042;-60
2022/02/04 10:32:45;;;;;;;;;;;;;;;7.98;51.32;100293.78;5094425;28;783;-60
2022/02/04 10:35:17;;;;;;;;;;;;;;;7.54;53.35;100295.09;5094365;28;827;-61
2022/02/04 10:37:55;;;;;;;;;;;;;;;7.06;52.45;100293.94;5094548;28;842;-60
2022/02/04 10:40:34;;;;;;;;;;;;;;;7.08;52.60;100288.84;5094260;28;882;-60
2022/02/04 10:43:16;;;;;;;;;;;;;;;7.13;52.25;100277.56;5094219;28;831;-60
2022/02/04 10:45:56;;;;;;;;;;;;;;;6.85;52.30;100277.84;5094124;28;1886;-60
2022/02/04 10:49:20;;;;;;;;;;;;;;;6.59;54.03;100270.31;5094048;28;906;-60
2022/02/04 10:54:11;;;;;;;;;;;;;;;7.00;52.77;100278.91;5094110;28;669;-61
2022/02/04 11:04:38;;;;;;;;;;;;;;;7.07;52.57;100268.84;5071750;28;1230;-60
2022/02/04 11:07:46;;;;;;;;;;;;;;;6.87;54.56;100259.06;5093550;28;1944;-60
2022/02/04 11:33:09;;;;;;;;;;;;;;;6.60;53.67;100239.75;5093246;28;649;-60
2022/02/04 11:43:51;;;;;;;;;;;;;;;6.90;53.43;100241.84;5092318;28;716;-60
2022/02/04 11:55:00;;;;;;;;;;;;;;;7.07;53.12;100230.34;5092781;28;700;-60
2022/02/04 11:57:28;;;;;;;;;;;;;;;7.02;52.16;100230.66;5092651;28;873;-60
2022/02/04 12:00:06;;;;;;;;;;;;;;;7.05;52.57;100229.91;5092756;28;795;-60
2022/02/04 12:02:36;;;;;;;;;;;;;;;6.94;52.25;100226.22;5092677;28;950;-60
2022/02/04 12:05:03;;;;;;;;;;;;;;;7.04;52.98;100227.53;5092209;28;937;-60
2022/02/04 12:07:39;;;;;;;;;;;;;;;6.75;52.25;100225.09;5092603;28;1953;-60
2022/02/04 12:10:26;;;;;;;;;;;;;;;6.69;52.96;100221.06;5092529;28;807;-60
2022/02/04 12:12:59;;;;;;;;;;;;;;;6.90;52.36;100226.16;5092356;28;1931;-60
2022/02/04 12:15:28;;;;;;;;;;;;;;;6.75;52.82;100227.84;5092641;28;987;-60
2022/02/04 12:17:59;;;;;;;;;;;;;;;6.56;51.98;100232.63;5092366;28;803;-60
2022/02/04 12:20:46;;;;;;;;;;;;;;;6.54;52.99;100232.97;5092141;28;1228;-60
2022/02/04 12:23:38;;;;;;;;;;;;;;;6.49;52.30;100228.56;5092243;28;969;-60
2022/02/04 12:26:27;;;;;;;;;;;;;;;6.88;51.84;100231.22;5084401;28;1901;-60
2022/02/04 12:29:03;;;;;;;;;;;;;;;6.88;51.97;100230.44;5092171;28;1405;-60
2022/02/04 12:31:30;;;;;;;;;;;;;;;6.49;50.50;100231.31;5074009;28;1490;-60
2022/02/04 12:33:59;;;;;;;;;;;;;;;6.16;51.86;100215.38;5091981;28;909;-59
2022/02/04 12:36:27;;;;;;;;;;;;;;;6.11;52.60;100213.72;5092186;28;826;-60
2022/02/04 12:38:56;;;;;;;;;;;;;;;5.93;51.89;100224.34;5092117;28;854;-59
2022/02/04 12:41:25;;;;;;;;;;;;;;;6.11;51.54;100215.69;5091836;28;881;-59
2022/02/04 12:43:53;;;;;;;;;;;;;;;6.13;50.19;100214.16;5091843;28;858;-60
2022/02/04 12:46:21;;;;;;;;;;;;;;;6.43;49.99;100223.75;5091883;28;1951;-59
2022/02/04 12:48:57;;;;;;;;;;;;;;;6.47;48.81;100224.63;5091916;28;874;-59
2022/02/04 12:51:53;;;;;;;;;;;;;;;6.60;49.59;100217.78;5074075;28;1187;-59
2022/02/04 12:54:35;;;;;;;;;;;;;;;6.55;48.90;100223.59;5091486;28;827;-59
2022/02/04 13:10:25;;;;;;;;;;;;;;;6.63;48.46;100217.03;5091876;28;823;-60
2022/02/04 13:12:56;;;;;;;;;;;;;;;6.60;49.41;100200.50;5091888;28;886;-60
2022/02/04 13:15:23;;;;;;;;;;;;;;;6.50;49.23;100207.41;5091673;28;921;-60
2022/02/04 13:17:50;;;;;;;;;;;;;;;6.83;49.62;100197.75;5091497;28;862;-59
2022/02/04 13:20:21;;;;;;;;;;;;;;;7.13;50.21;100201.38;5073333;28;1176;-60
2022/02/04 13:22:48;;;;;;;;;;;;;;;7.19;49.44;100203.81;5091585;28;890;-60
2022/02/04 13:25:29;;;;;;;;;;;;;;;7.15;49.35;100203.78;5091397;28;866;-59
2022/02/04 13:28:00;;;;;;;;;;;;;;;6.79;51.06;100200.44;5091374;28;953;-59
2022/02/04 13:30:28;;;;;;;;;;;;;;;6.77;49.91;100210.22;5091366;28;862;-59
2022/02/04 13:32:55;;;;;;;;;;;;;;;6.69;51.00;100204.59;5073131;28;1507;-58
2022/02/04 13:35:30;;;;;;;;;;;;;;;6.41;51.44;100209.59;5091468;28;803;-59
2022/02/04 13:38:02;;;;;;;;;;;;;;;6.17;50.95;100197.00;5091666;28;791;-59
2022/02/04 13:40:43;;;;;;;;;;;;;;;6.19;51.56;100205.63;5091353;28;919;-58
2022/02/04 13:43:23;;;;;;;;;;;;;;;6.37;52.44;100204.03;5091309;28;911;-59
2022/02/04 13:45:55;;;;;;;;;;;;;;;6.36;51.33;100198.88;5091446;28;1951;-59
2022/02/04 13:48:37;;;;;;;;;;;;;;;6.28;51.26;100198.75;5091235;28;906;-59
2022/02/04 13:51:39;;;;;;;;;;;;;;;6.30;52.36;100195.66;5091487;28;937;-59
2022/02/04 13:54:09;;;;;;;;;;;;;;;6.38;52.51;100191.91;5090358;28;1491;-59
2022/02/04 13:56:49;;;;;;;;;;;;;;;6.33;52.93;100190.22;5090735;28;859;-59
2022/02/04 13:59:33;;;;;;;;;;;;;;;6.50;53.35;100183.47;5091192;28;968;-59
2022/02/04 14:02:06;;;;;;;;;;;;;;;6.38;52.69;100189.16;5091209;28;889;-59
2022/02/04 14:04:33;;;;;;;;;;;;;;;6.28;51.83;100190.53;5091319;28;756;-59
2022/02/04 14:07:10;;;;;;;;;;;;;;;6.19;51.55;100191.91;5094446;28;1881;-59
2022/02/04 14:09:42;;;;;;;;;;;;;;;6.10;52.57;100189.38;5094759;28;839;-59
2022/02/04 14:12:15;;;;;;;;;;;;;;;5.88;51.36;100183.44;5094703;28;965;-59
2022/02/04 14:14:42;;;;;;;;;;;;;;;5.76;52.05;100177.31;5095467;28;795;-59
2022/02/04 14:17:08;;;;;;;;;;;;;;;5.57;52.92;100183.59;5095235;28;959;-59
2022/02/04 14:19:35;;;;;;;;;;;;;;;5.55;53.79;100186.69;5094686;28;884;-59
2022/02/04 14:22:02;;;;;;;;;;;;;;;5.69;54.37;100183.44;5094425;28;1270;-59
2022/02/04 14:24:28;;;;;;;;;;;;;;;5.71;53.66;100186.63;5094640;28;890;-59
2022/02/04 14:26:57;;;;;;;;;;;;;;;5.51;53.51;100181.13;5094474;28;1967;-59
2022/02/04 14:29:33;;;;;;;;;;;;;;;5.40;54.28;100185.59;5095171;28;771;-59
2022/02/04 14:34:44;;;;;;;;;;;;;;;5.30;54.14;100188.88;5094371;28;901;-59
2022/02/04 14:37:41;;;;;;;;;;;;;;;4.95;53.87;100186.09;5094263;28;863;-59
2022/02/04 14:54:08;;;;;;;;;;;;;;;4.23;57.57;100182.38;5094370;28;633;-58
2022/02/04 15:02:00;;;;;;;;;;;;;;;3.72;59.27;100171.19;5093773;28;691;-59
2022/02/04 15:04:42;;;;;;;;;;;;;;;3.53;59.00;100176.50;5093752;28;886;-59
2022/02/04 15:07:10;;;;;;;;;;;;;;;3.26;59.92;100176.09;5075535;28;2027;-59
2022/02/04 15:09:42;;;;;;;;;;;;;;;3.00;60.88;100184.66;5093783;28;854;-58
2022/02/04 15:12:08;;;;;;;;;;;;;;;2.74;60.88;100182.25;5093966;28;949;-59
2022/02/04 15:14:35;;;;;;;;;;;;;;;2.55;62.32;100175.41;5093710;28;875;-58
2022/02/04 15:17:01;;;;;;;;;;;;;;;2.36;62.73;100172.41;5094028;28;971;-59
2022/02/04 15:19:32;;;;;;;;;;;;;;;2.16;63.35;100185.78;5093617;28;839;-58
2022/02/04 15:22:01;;;;;;;;;;;;;;;1.95;64.40;100193.22;5093174;28;1555;-59
2022/02/04 15:24:27;;;;;;;;;;;;;;;1.70;64.69;100184.13;5093251;28;922;-58
2022/02/04 15:26:53;;;;;;;;;;;;;;;1.54;64.98;100190.19;5093382;28;1985;-58
2022/02/04 15:29:20;;;;;;;;;;;;;;;1.41;65.82;100194.75;5093437;28;779;-58
2022/02/04 15:31:54;;;;;;;;;;;;;;;1.30;65.66;100193.56;5093255;28;827;-58
2022/02/04 15:34:23;;;;;;;;;;;;;;;1.20;66.39;100189.28;5093194;28;881;-58
2022/02/04 15:36:50;;;;;;;;;;;;;;;1.13;67.58;100188.19;5093247;28;838;-58
2022/02/04 15:39:16;;;;;;;;;;;;;;;0.96;68.38;100189.91;5074893;28;1286;-58
2022/02/04 15:41:43;;;;;;;;;;;;;;;0.86;68.79;100189.47;5074993;28;1175;-58
2022/02/04 15:44:36;;;;;;;;;;;;;;;0.72;69.31;100185.03;5093041;28;882;-58
2022/02/04 15:55:09;;;;;;;;;;;;;;;-0.18;74.27;100190.53;5092833;28;661;-58
2022/02/04 15:57:47;;;;;;;;;;;;;;;-0.32;75.00;100187.97;5092891;28;870;-58
2022/02/04 16:00:36;;;;;;;;;;;;;;;-0.37;75.31;100188.94;5092690;28;968;-58
2022/02/04 16:03:20;;;;;;;;;;;;;;;-0.45;75.44;100179.69;5092688;28;958;-58
2022/02/04 16:05:46;;;;;;;;;;;;;;;-0.50;75.92;100173.59;5092438;28;1886;-58
2022/02/04 16:08:17;;;;;;;;;;;;;;;-0.52;76.21;100175.84;5092664;28;807;-58
2022/02/04 16:11:15;;;;;;;;;;;;;;;-0.61;76.22;100173.13;5092378;28;942;-58
2022/02/04 16:19:07;;;;;;;;;;;;;;;-0.81;76.46;100174.56;5092358;28;677;-58
2022/02/04 16:21:45;;;;;;;;;;;;;;;-0.88;76.92;100168.78;5091954;28;1244;-58
2022/02/04 16:26:54;;;;;;;;;;;;;;;-0.94;76.92;100175.47;5092215;28;1964;-58
2022/02/04 16:29:20;;;;;;;;;;;;;;;-0.96;77.01;100174.97;5091571;28;903;-58
2022/02/04 16:31:47;;;;;;;;;;;;;;;-0.98;76.91;100169.06;5092143;28;839;-58
2022/02/04 16:34:13;;;;;;;;;;;;;;;-1.06;77.25;100174.16;5092212;28;815;-58
2022/02/04 16:36:42;;;;;;;;;;;;;;;-1.12;77.52;100170.00;5092172;28;864;-58
2022/02/04 16:39:10;;;;;;;;;;;;;;;-1.13;77.50;100175.72;5092065;28;870;-58
2022/02/04 16:41:54;;;;;;;;;;;;;;;-1.18;77.57;100175.88;5092001;28;879;-58
2022/02/04 16:44:21;;;;;;;;;;;;;;;-1.29;78.27;100178.06;5091769;28;931;-58
2022/02/04 16:46:47;;;;;;;;;;;;;;;-1.34;78.58;100181.72;5092124;28;1913;-58
2022/02/04 16:49:14;;;;;;;;;;;;;;;-1.38;78.93;100167.19;5091680;28;910;-58
2022/02/04 16:51:41;;;;;;;;;;;;;;;-1.42;79.32;100170.84;5091861;28;815;-58
2022/02/04 16:54:07;;;;;;;;;;;;;;;-1.53;79.38;100176.56;5091942;28;829;-58
2022/02/04 16:56:33;;;;;;;;;;;;;;;-1.60;79.62;100187.06;5091950;28;849;-58
2022/02/04 16:59:01;;;;;;;;;;;;;;;-1.68;79.76;100176.97;5091724;28;909;-58
2022/02/04 17:01:28;;;;;;;;;;;;;;;-1.73;80.40;100174.38;5091571;28;851;-58
2022/02/04 17:03:54;;;;;;;;;;;;;;;-1.80;80.71;100169.38;5091787;28;1077;-58
2022/02/04 17:06:21;;;;;;;;;;;;;;;-1.82;80.86;100178.94;5091400;28;1975;-58
2022/02/04 17:08:58;;;;;;;;;;;;;;;-1.83;80.52;100185.47;5091486;28;870;-58
2022/02/04 17:11:27;;;;;;;;;;;;;;;-1.94;80.84;100188.44;5091377;28;857;-58
2022/02/04 17:13:54;;;;;;;;;;;;;;;-2.01;81.41;100189.97;5091813;28;859;-58
2022/02/04 17:16:20;;;;;;;;;;;;;;;-2.01;81.14;100185.34;5091926;28;936;-58
2022/02/04 17:18:46;;;;;;;;;;;;;;;-1.91;81.57;100192.44;5091569;28;827;-58
2022/02/04 17:21:15;;;;;;;;;;;;;;;-1.77;80.96;100192.34;5091293;28;1208;-58
2022/02/04 17:23:43;;;;;;;;;;;;;;;-1.72;80.75;100190.31;5091354;28;1407;-58
2022/02/04 17:26:11;;;;;;;;;;;;;;;-1.72;80.69;100189.53;5091744;28;1902;-58
2022/02/04 17:28:37;;;;;;;;;;;;;;;-1.77;80.57;100192.34;5091696;28;926;-58
2022/02/04 17:31:05;;;;;;;;;;;;;;;-1.81;80.79;100194.91;5091687;28;818;-58
2022/02/04 17:33:31;;;;;;;;;;;;;;;-1.72;80.22;100195.75;5091758;28;803;-58
2022/02/04 17:35:58;;;;;;;;;;;;;;;-1.64;80.35;100186.06;5091680;28;803;-58
2022/02/04 17:38:26;;;;;;;;;;;;;;;-1.62;80.38;100183.03;5091482;28;846;-58
2022/02/04 17:40:54;;;;;;;;;;;;;;;-1.65;80.30;100184.44;5093402;28;858;-58
2022/02/04 17:43:21;;;;;;;;;;;;;;;-1.63;80.34;100186.88;5095384;28;855;-58
2022/02/04 17:45:48;;;;;;;;;;;;;;;-1.60;80.06;100181.63;5095387;28;1943;-58
2022/02/04 17:48:27;;;;;;;;;;;;;;;-1.64;79.70;100186.06;5095438;28;807;-58
2022/02/04 17:51:03;;;;;;;;;;;;;;;-1.71;80.33;100183.81;5095196;28;873;-58
2022/02/04 17:53:42;;;;;;;;;;;;;;;-1.70;79.57;100179.97;5095397;28;878;-58
2022/02/04 17:56:25;;;;;;;;;;;;;;;-1.71;80.13;100175.69;5095023;28;835;-58
2022/02/04 18:07:09;;;;;;;;;;;;;;;-2.36;82.45;100166.16;5095028;28;1854;-58
2022/02/04 18:09:36;;;;;;;;;;;;;;;-2.30;83.19;100173.06;5094951;28;925;-58
2022/02/04 18:12:04;;;;;;;;;;;;;;;-2.22;82.83;100165.28;5094969;28;866;-58
2022/02/04 18:14:29;;;;;;;;;;;;;;;-2.18;82.33;100174.41;5094869;28;984;-58
2022/02/04 18:16:55;;;;;;;;;;;;;;;-2.14;82.04;100165.34;5095408;28;955;-58
2022/02/04 18:19:22;;;;;;;;;;;;;;;-2.12;81.66;100170.47;5095080;28;850;-58
2022/02/04 18:21:49;;;;;;;;;;;;;;;-2.21;81.68;100166.91;5094720;28;1271;-58
2022/02/04 18:24:16;;;;;;;;;;;;;;;-2.39;81.76;100169.50;5094890;28;870;-58
2022/02/04 18:26:42;;;;;;;;;;;;;;;-2.51;82.85;100170.03;5094765;28;1969;-58
2022/02/04 18:29:10;;;;;;;;;;;;;;;-2.54;83.27;100175.22;5094783;28;822;-58
2022/02/04 18:31:36;;;;;;;;;;;;;;;-2.57;83.77;100173.94;5094926;28;855;-58
2022/02/04 18:34:05;;;;;;;;;;;;;;;-2.59;83.98;100178.06;5095232;28;783;-58
2022/02/04 18:36:34;;;;;;;;;;;;;;;-2.55;83.98;100174.44;5094617;28;906;-58
2022/02/04 18:39:30;;;;;;;;;;;;;;;-2.47;83.22;100170.22;5094347;28;890;-58
2022/02/04 18:44:35;;;;;;;;;;;;;;;-2.57;83.19;100165.81;5094985;28;692;-58
2022/02/04 18:49:37;;;;;;;;;;;;;;;-2.54;83.30;100156.28;5094424;28;644;-58
2022/02/04 18:57:26;;;;;;;;;;;;;;;-2.24;83.01;100160.22;5094228;28;794;-58
2022/02/04 18:59:57;;;;;;;;;;;;;;;-2.24;82.87;100152.09;5093969;28;827;-57
2022/02/04 19:02:25;;;;;;;;;;;;;;;-2.29;82.80;100144.84;5093969;28;1115;-57
2022/02/04 19:05:06;;;;;;;;;;;;;;;-2.42;83.31;100145.72;5094069;28;985;-57
2022/02/04 19:07:39;;;;;;;;;;;;;;;-2.50;83.14;100143.75;5093697;28;1867;-57
2022/02/04 19:10:06;;;;;;;;;;;;;;;-2.58;83.53;100147.19;5094377;28;811;-57
2022/02/04 19:12:42;;;;;;;;;;;;;;;-2.65;83.69;100142.19;5093964;28;914;-57
2022/02/04 19:15:45;;;;;;;;;;;;;;;-2.59;84.02;100142.88;5093735;28;1138;-57
2022/02/04 19:18:10;;;;;;;;;;;;;;;-2.51;84.25;100147.56;5092818;28;1441;-57
2022/02/04 19:20:54;;;;;;;;;;;;;;;-2.55;83.98;100149.28;5093750;28;1229;-57
2022/02/04 19:23:26;;;;;;;;;;;;;;;-2.74;83.77;100144.03;5093460;28;1107;-57
2022/02/04 19:25:59;;;;;;;;;;;;;;;-2.96;83.94;100142.88;5093438;28;1921;-57
2022/02/04 19:28:27;;;;;;;;;;;;;;;-3.17;84.41;100133.59;5093103;28;831;-57
2022/02/04 19:30:57;;;;;;;;;;;;;;;-3.24;84.91;100130.47;5093597;28;850;-57